createdAt,value
2019-03-17T00:01:57.643Z,0.90
2019-03-17T00:07:03.372Z,0.90
2019-03-17T00:12:07.689Z,0.90
2019-03-17T00:17:11.915Z,1.00
2019-03-17T00:22:16.307Z,0.90
2019-03-17T00:27:20.547Z,1.10
2019-03-17T00:32:25.027Z,0.80
2019-03-17T00:37:29.256Z,0.90
2019-03-17T00:42:34.738Z,0.80
2019-03-17T00:47:39.026Z,0.73
2019-03-17T00:52:43.266Z,0.80
2019-03-17T00:57:47.598Z,0.93
2019-03-17T01:02:52.303Z,1.30
2019-03-17T01:07:56.540Z,0.90
2019-03-17T01:13:01.483Z,0.93
2019-03-17T01:18:05.699Z,0.83
2019-03-17T01:23:11.667Z,0.90
2019-03-17T01:28:16.009Z,0.80
2019-03-17T01:33:20.438Z,0.90
2019-03-17T01:38:25.738Z,0.87
2019-03-17T01:43:30.090Z,1.00
2019-03-17T01:48:34.309Z,0.90
2019-03-17T01:53:39.213Z,0.90
2019-03-17T01:58:43.928Z,0.90
2019-03-17T02:03:48.497Z,1.00
2019-03-17T02:08:53.782Z,0.90
2019-03-17T02:13:58.115Z,0.80
2019-03-17T02:19:02.354Z,0.70
2019-03-17T02:24:06.665Z,1.00
2019-03-17T02:29:10.966Z,0.90
2019-03-17T02:34:15.275Z,0.80
2019-03-17T02:39:19.525Z,0.97
2019-03-17T02:44:23.811Z,1.00
2019-03-17T02:49:28.067Z,1.00
2019-03-17T02:54:33.106Z,1.00
2019-03-17T02:59:37.628Z,0.90
2019-03-17T03:04:42.798Z,1.37
2019-03-17T03:09:47.033Z,0.80
2019-03-17T03:14:52.095Z,1.10
2019-03-17T03:19:57.302Z,1.10
2019-03-17T03:25:02.915Z,1.10
2019-03-17T03:30:07.566Z,0.90
2019-03-17T03:35:13.335Z,0.80
2019-03-17T03:40:17.614Z,0.87
2019-03-17T03:45:23.239Z,1.00
2019-03-17T03:50:27.506Z,0.93
2019-03-17T03:55:34.736Z,1.00
2019-03-17T04:00:39.011Z,1.00
2019-03-17T04:05:43.424Z,0.93
2019-03-17T04:10:47.646Z,0.90
2019-03-17T04:15:52.723Z,0.80
2019-03-17T04:20:56.950Z,0.90
2019-03-17T04:26:02.406Z,1.10
2019-03-17T04:31:06.655Z,0.90
2019-03-17T04:36:11.375Z,0.97
2019-03-17T04:41:15.594Z,1.07
2019-03-17T04:46:19.940Z,0.80
2019-03-17T04:51:24.190Z,0.80
2019-03-17T04:56:28.487Z,1.03
2019-03-17T05:01:33.091Z,1.07
2019-03-17T05:06:38.418Z,0.90
2019-03-17T05:11:42.651Z,1.17
2019-03-17T05:16:46.898Z,1.00
2019-03-17T05:21:51.157Z,1.20
2019-03-17T05:26:56.377Z,1.10
2019-03-17T05:32:00.717Z,0.80
2019-03-17T05:37:06.935Z,1.20
2019-03-17T05:42:11.430Z,1.00
2019-03-17T05:47:16.599Z,0.80
2019-03-17T05:52:21.811Z,0.80
2019-03-17T05:57:26.046Z,1.30
2019-03-17T06:02:30.381Z,1.20
2019-03-17T06:07:35.266Z,1.50
2019-03-17T06:12:39.509Z,1.40
2019-03-17T06:17:44.758Z,1.43
2019-03-17T06:22:49.149Z,1.60
2019-03-17T06:27:53.629Z,1.60
2019-03-17T06:32:57.855Z,1.50
2019-03-17T06:38:02.406Z,1.00
2019-03-17T06:43:06.657Z,2.10
2019-03-17T06:48:13.848Z,1.90
2019-03-17T06:53:18.108Z,1.90
2019-03-17T06:58:22.440Z,2.33
2019-03-17T07:03:26.686Z,2.10
2019-03-17T07:08:32.101Z,2.00
2019-03-17T07:13:36.329Z,1.87
2019-03-17T07:18:42.101Z,2.47
2019-03-17T07:23:46.348Z,2.10
2019-03-17T07:28:52.156Z,2.00
2019-03-17T07:33:57.762Z,2.60
2019-03-17T07:39:11.625Z,1.80
2019-03-17T07:44:10.868Z,1.52
2019-03-17T07:49:15.403Z,1.50
2019-03-17T07:54:19.649Z,2.17
2019-03-17T07:59:24.319Z,1.82
2019-03-17T08:04:28.635Z,2.58
2019-03-17T08:09:33.975Z,2.80
2019-03-17T08:14:38.497Z,1.87
2019-03-17T08:19:44.061Z,1.50
2019-03-17T08:24:48.587Z,1.53
2019-03-17T08:29:54.386Z,1.23
2019-03-17T08:34:58.953Z,1.10
2019-03-17T08:40:07.383Z,1.20
2019-03-17T08:45:11.874Z,1.30
2019-03-17T08:50:17.762Z,1.13
2019-03-17T08:55:22.262Z,1.20
2019-03-17T09:00:27.491Z,1.53
2019-03-17T09:05:32.015Z,1.33
2019-03-17T09:10:37.892Z,1.10
2019-03-17T09:15:42.404Z,1.10
2019-03-17T09:20:48.193Z,1.07
2019-03-17T09:25:52.695Z,1.10
2019-03-17T09:30:57.623Z,1.03
2019-03-17T09:36:02.206Z,1.10
2019-03-17T09:41:08.206Z,1.30
2019-03-17T09:46:12.811Z,1.57
2019-03-17T09:51:18.803Z,1.13
2019-03-17T09:56:25.883Z,1.17
2019-03-17T10:01:30.798Z,1.20
2019-03-17T10:06:35.300Z,1.10
2019-03-17T10:11:41.092Z,0.97
2019-03-17T10:16:45.601Z,1.20
2019-03-17T10:21:51.296Z,1.30
2019-03-17T10:26:55.826Z,1.10
2019-03-17T10:32:01.551Z,1.30
2019-03-17T10:37:06.064Z,1.20
2019-03-17T10:42:12.201Z,1.10
2019-03-17T10:47:16.721Z,1.40
2019-03-17T10:52:22.607Z,1.40
2019-03-17T10:57:27.112Z,1.10
2019-03-17T11:02:32.029Z,1.30
2019-03-17T11:07:36.554Z,1.40
2019-03-17T11:12:42.323Z,1.40
2019-03-17T11:17:46.838Z,1.90
2019-03-17T11:22:52.723Z,1.20
2019-03-17T11:27:57.242Z,1.40
2019-03-17T11:33:02.967Z,1.43
2019-03-17T11:38:07.478Z,1.20
2019-03-17T11:43:13.352Z,1.80
2019-03-17T11:48:17.883Z,1.90
2019-03-17T11:53:23.756Z,1.47
2019-03-17T11:58:28.271Z,2.30
2019-03-17T12:03:33.687Z,1.77
2019-03-17T12:08:38.205Z,1.97
2019-03-17T12:13:44.210Z,1.60
2019-03-17T12:18:48.714Z,1.27
2019-03-17T12:23:54.574Z,2.00
2019-03-17T12:28:59.099Z,1.60
2019-03-17T12:34:03.787Z,1.97
2019-03-17T12:39:10.040Z,1.70
2019-03-17T12:44:14.722Z,1.70
2019-03-17T12:49:19.229Z,1.10
2019-03-17T12:54:24.024Z,1.13
2019-03-17T12:59:28.804Z,1.03
2019-03-17T13:04:34.114Z,1.30
2019-03-17T13:09:38.660Z,1.07
2019-03-17T13:14:43.286Z,1.00
2019-03-17T13:19:49.330Z,1.10
2019-03-17T13:24:54.426Z,1.30
2019-03-17T13:29:59.858Z,1.30
2019-03-17T13:35:05.099Z,0.83
2019-03-17T13:40:10.214Z,1.17
2019-03-17T13:45:15.162Z,1.13
2019-03-17T13:50:19.666Z,1.17
2019-03-17T13:55:24.969Z,0.77
2019-03-17T14:00:29.559Z,1.00
2019-03-17T14:05:34.334Z,1.00
2019-03-17T14:10:41.208Z,1.20
2019-03-17T14:15:45.108Z,1.07
2019-03-17T14:20:49.629Z,1.03
2019-03-17T14:25:54.563Z,1.00
2019-03-17T14:30:59.140Z,0.80
2019-03-17T14:36:04.146Z,1.03
2019-03-17T14:41:08.676Z,1.00
2019-03-17T14:46:13.942Z,0.60
2019-03-17T14:51:18.433Z,0.53
2019-03-17T14:56:23.082Z,0.40
2019-03-17T15:01:27.618Z,0.40
2019-03-17T15:06:32.120Z,0.40
2019-03-17T15:11:36.622Z,0.30
2019-03-17T15:16:41.135Z,0.47
2019-03-17T15:21:45.647Z,0.40
2019-03-17T15:26:50.148Z,0.40
2019-03-17T15:31:54.691Z,0.40
2019-03-17T15:36:59.178Z,0.50
2019-03-17T15:42:03.714Z,0.40
2019-03-17T15:47:08.222Z,0.40
2019-03-17T15:52:12.714Z,0.60
2019-03-17T15:57:17.204Z,0.40
2019-03-17T16:02:21.755Z,0.43
2019-03-17T16:07:26.263Z,0.60
2019-03-17T16:12:30.857Z,0.60
2019-03-17T16:17:36.438Z,0.40
2019-03-17T16:22:40.947Z,0.77
2019-03-17T16:27:45.476Z,0.90
2019-03-17T16:32:50.003Z,1.03
2019-03-17T16:37:54.507Z,0.63
2019-03-17T16:42:59.007Z,0.60
2019-03-17T16:48:03.511Z,0.80
2019-03-17T16:53:08.008Z,0.70
2019-03-17T16:58:12.517Z,0.90
2019-03-17T17:03:17.625Z,1.22
2019-03-17T17:08:22.194Z,1.00
2019-03-17T17:13:26.439Z,0.80
2019-03-17T17:18:30.955Z,0.83
2019-03-17T17:23:35.455Z,1.23
2019-03-17T17:28:39.951Z,0.80
2019-03-17T17:33:44.537Z,0.70
2019-03-17T17:38:48.799Z,0.60
2019-03-17T17:43:53.043Z,0.70
2019-03-17T17:48:57.641Z,0.77
2019-03-17T17:54:02.031Z,0.70
2019-03-17T17:59:06.525Z,0.70
2019-03-17T18:04:11.091Z,0.67
2019-03-17T18:09:15.346Z,0.80
2019-03-17T18:14:22.482Z,0.90
2019-03-17T18:19:27.077Z,0.50
2019-03-17T18:24:31.381Z,0.62
2019-03-17T18:29:35.599Z,0.70
2019-03-17T18:34:39.961Z,0.70
2019-03-17T18:39:44.469Z,0.80
2019-03-17T18:44:50.202Z,0.90
2019-03-17T18:49:54.422Z,0.75
2019-03-17T18:54:59.030Z,0.70
2019-03-17T19:00:04.558Z,0.70
2019-03-17T19:05:09.010Z,0.90
2019-03-17T19:10:13.244Z,0.90
2019-03-17T19:15:19.439Z,0.67
2019-03-17T19:20:23.677Z,0.72
2019-03-17T19:25:27.957Z,0.70
2019-03-17T19:30:32.200Z,0.98
2019-03-17T19:35:37.662Z,0.82
2019-03-17T19:40:41.878Z,1.00
2019-03-17T19:45:47.589Z,0.90
2019-03-17T19:50:52.091Z,0.90
2019-03-17T19:55:56.639Z,1.20
2019-03-17T20:01:01.173Z,1.10
2019-03-17T20:06:05.390Z,1.20
2019-03-17T20:11:09.904Z,0.90
2019-03-17T20:16:15.954Z,1.17
2019-03-17T20:21:20.238Z,0.93
2019-03-17T20:26:26.042Z,1.20
2019-03-17T20:31:30.496Z,1.30
2019-03-17T20:36:36.357Z,1.00
2019-03-17T20:41:40.661Z,1.37
2019-03-17T20:46:46.562Z,1.47
2019-03-17T20:51:51.070Z,1.03
2019-03-17T20:56:55.635Z,1.30
2019-03-17T21:02:00.180Z,1.10
2019-03-17T21:07:05.156Z,1.20
2019-03-17T21:12:09.381Z,1.20
2019-03-17T21:17:15.038Z,1.45
2019-03-17T21:22:19.722Z,1.10
2019-03-17T21:27:27.085Z,1.27
2019-03-17T21:32:31.602Z,1.10
2019-03-17T21:37:37.382Z,1.30
2019-03-17T21:42:41.602Z,1.20
2019-03-17T21:47:47.511Z,1.37
2019-03-17T21:52:51.998Z,1.20
2019-03-17T21:57:57.815Z,1.00
2019-03-17T22:03:02.790Z,1.20
2019-03-17T22:08:08.740Z,1.30
2019-03-17T22:13:13.310Z,1.27
2019-03-17T22:18:17.839Z,1.20
2019-03-17T22:23:23.383Z,1.20
2019-03-17T22:28:27.884Z,1.20
2019-03-17T22:33:33.306Z,1.30
2019-03-17T22:38:37.595Z,1.10
2019-03-17T22:43:43.390Z,1.20
2019-03-17T22:48:48.277Z,1.20
2019-03-17T22:53:53.806Z,1.10
2019-03-17T22:58:58.018Z,1.20
2019-03-17T23:04:03.682Z,1.10
2019-03-17T23:09:08.257Z,1.00
2019-03-17T23:14:12.569Z,0.98
2019-03-17T23:19:17.094Z,1.10
2019-03-17T23:24:23.911Z,1.10
2019-03-17T23:29:28.407Z,1.20
2019-03-17T23:34:32.778Z,0.95
2019-03-17T23:39:36.994Z,1.10
2019-03-17T23:44:48.761Z,1.22
2019-03-17T23:49:48.221Z,1.70
2019-03-17T23:54:53.625Z,1.00
2019-03-17T23:59:58.118Z,1.10
